createdAt,value
2017-10-05T00:00:04.169Z,16.9
2017-10-05T00:00:17.022Z,16.91
2017-10-05T00:00:29.866Z,16.92
2017-10-05T00:00:42.769Z,16.91
2017-10-05T00:00:56.199Z,16.94
2017-10-05T00:01:09.053Z,16.94
2017-10-05T00:01:22.437Z,16.95
2017-10-05T00:01:35.299Z,16.95
2017-10-05T00:01:48.152Z,16.91
2017-10-05T00:02:01.593Z,16.84
2017-10-05T00:02:14.480Z,16.9
2017-10-05T00:02:27.357Z,16.81
2017-10-05T00:02:39.631Z,16.85
2017-10-05T00:02:53.019Z,16.9
2017-10-05T00:03:05.870Z,16.91
2017-10-05T00:03:18.764Z,16.97
2017-10-05T00:03:32.193Z,16.9
2017-10-05T00:03:45.617Z,16.9
2017-10-05T00:03:59.000Z,16.85
2017-10-05T00:04:11.265Z,16.8
2017-10-05T00:04:24.631Z,16.88
2017-10-05T00:04:38.032Z,16.88
2017-10-05T00:04:51.379Z,16.87
2017-10-05T00:05:04.762Z,16.85
2017-10-05T00:05:17.642Z,16.8
2017-10-05T00:05:31.009Z,16.84
2017-10-05T00:05:42.815Z,16.87
2017-10-05T00:05:56.217Z,16.9
2017-10-05T00:06:09.520Z,16.92
2017-10-05T00:06:22.316Z,16.82
2017-10-05T00:06:35.184Z,16.82
2017-10-05T00:06:47.543Z,16.85
2017-10-05T00:07:00.385Z,16.82
2017-10-05T00:07:13.778Z,16.82
2017-10-05T00:07:26.142Z,16.82
2017-10-05T00:07:38.969Z,16.88
2017-10-05T00:07:52.299Z,16.88
2017-10-05T00:08:04.087Z,16.87
2017-10-05T00:08:17.508Z,16.85
2017-10-05T00:08:30.903Z,16.81
2017-10-05T00:08:44.284Z,16.82
2017-10-05T00:08:57.651Z,16.84
2017-10-05T00:09:10.590Z,16.82
2017-10-05T00:09:22.929Z,16.81
2017-10-05T00:09:36.345Z,16.82
2017-10-05T00:09:48.644Z,16.85
2017-10-05T00:10:01.711Z,16.82
2017-10-05T00:10:15.099Z,16.82
2017-10-05T00:10:27.435Z,16.9
2017-10-05T00:10:40.879Z,16.87
2017-10-05T00:10:54.263Z,16.94
2017-10-05T00:11:07.074Z,16.85
2017-10-05T00:11:19.363Z,16.84
2017-10-05T00:11:31.696Z,16.92
2017-10-05T00:11:45.071Z,16.95
2017-10-05T00:11:58.452Z,16.87
2017-10-05T00:12:11.889Z,16.84
2017-10-05T00:12:24.717Z,16.95
2017-10-05T00:12:37.554Z,16.87
2017-10-05T00:12:50.414Z,16.88
2017-10-05T00:13:03.812Z,16.87
2017-10-05T00:13:17.200Z,16.92
2017-10-05T00:13:29.523Z,16.94
2017-10-05T00:13:41.285Z,16.91
2017-10-05T00:13:54.218Z,16.85
2017-10-05T00:14:07.060Z,16.87
2017-10-05T00:14:20.647Z,16.9
2017-10-05T00:14:33.486Z,16.85
2017-10-05T00:14:46.801Z,16.87
2017-10-05T00:15:00.151Z,16.9
2017-10-05T00:15:13.512Z,16.92
2017-10-05T00:15:25.846Z,16.91
2017-10-05T00:15:38.198Z,16.94
2017-10-05T00:15:51.584Z,16.81
2017-10-05T00:16:04.441Z,16.91
2017-10-05T00:16:17.861Z,16.95
2017-10-05T00:16:32.605Z,16.91
2017-10-05T00:16:46.017Z,16.92
2017-10-05T00:16:59.360Z,16.88
2017-10-05T00:17:12.196Z,16.91
2017-10-05T00:17:25.025Z,16.8
2017-10-05T00:17:37.878Z,16.84
2017-10-05T00:17:50.747Z,16.82
2017-10-05T00:18:03.650Z,16.84
2017-10-05T00:18:17.052Z,16.82
2017-10-05T00:18:28.796Z,16.8
2017-10-05T00:18:42.181Z,16.82
2017-10-05T00:18:55.555Z,16.84
2017-10-05T00:19:08.923Z,16.81
2017-10-05T00:19:21.381Z,16.85
2017-10-05T00:19:34.795Z,16.84
2017-10-05T00:19:47.606Z,16.8
2017-10-05T00:20:01.066Z,16.81
2017-10-05T00:20:13.368Z,16.77
2017-10-05T00:20:25.129Z,16.85
2017-10-05T00:20:38.514Z,16.82
2017-10-05T00:20:51.862Z,16.87
2017-10-05T00:21:05.260Z,16.85
2017-10-05T00:21:18.690Z,16.85
2017-10-05T00:21:32.077Z,16.88
2017-10-05T00:21:44.950Z,16.84
2017-10-05T00:21:57.817Z,16.76
2017-10-05T00:22:10.635Z,16.8
2017-10-05T00:22:23.505Z,16.76
2017-10-05T00:22:36.902Z,16.74
2017-10-05T00:22:49.785Z,16.85
2017-10-05T00:23:03.189Z,16.82
2017-10-05T00:23:16.628Z,16.77
2017-10-05T00:23:29.461Z,16.74
2017-10-05T00:23:43.065Z,16.87
2017-10-05T00:23:55.930Z,16.77
2017-10-05T00:24:09.278Z,16.73
2017-10-05T00:24:22.364Z,16.73
2017-10-05T00:24:35.179Z,16.74
2017-10-05T00:24:47.999Z,16.72
2017-10-05T00:25:01.457Z,16.72
2017-10-05T00:25:14.901Z,16.73
2017-10-05T00:25:28.320Z,16.76
2017-10-05T00:25:41.140Z,16.73
2017-10-05T00:25:54.002Z,16.67
2017-10-05T00:26:07.432Z,16.73
2017-10-05T00:26:19.765Z,16.73
2017-10-05T00:26:32.631Z,16.72
2017-10-05T00:26:44.972Z,16.72
2017-10-05T00:26:57.880Z,16.65
2017-10-05T00:27:09.651Z,16.66
2017-10-05T00:27:23.027Z,16.65
2017-10-05T00:27:35.378Z,16.8
2017-10-05T00:27:48.806Z,16.72
2017-10-05T00:28:33.332Z,16.63
2017-10-05T00:33:03.626Z,16.72
2017-10-05T00:37:08.520Z,16.65
2017-10-05T00:37:21.387Z,16.65
2017-10-05T00:37:34.281Z,16.69
2017-10-05T00:37:47.144Z,16.63
2017-10-05T00:38:00.487Z,16.65
2017-10-05T00:38:13.883Z,16.69
2017-10-05T00:38:27.324Z,16.66
2017-10-05T00:38:40.723Z,16.72
2017-10-05T00:38:54.114Z,16.59
2017-10-05T00:39:06.993Z,16.72
2017-10-05T00:39:20.415Z,16.69
2017-10-05T00:39:32.769Z,16.66
2017-10-05T00:39:46.101Z,16.66
2017-10-05T00:39:59.617Z,16.66
2017-10-05T00:40:12.457Z,16.7
2017-10-05T00:40:25.794Z,16.69
2017-10-05T00:40:38.160Z,16.67
2017-10-05T00:40:51.010Z,16.69
2017-10-05T00:41:03.856Z,16.73
2017-10-05T00:41:17.243Z,16.65
2017-10-05T00:41:29.628Z,16.72
2017-10-05T00:41:42.428Z,16.67
2017-10-05T00:41:55.866Z,16.73
2017-10-05T00:42:08.706Z,16.59
2017-10-05T00:42:22.097Z,16.76
2017-10-05T00:42:35.001Z,16.66
2017-10-05T00:42:47.872Z,16.67
2017-10-05T00:43:00.737Z,16.59
2017-10-05T00:43:14.128Z,16.69
2017-10-05T00:43:26.953Z,16.67
2017-10-05T00:43:39.753Z,16.73
2017-10-05T00:43:52.667Z,16.74
2017-10-05T00:44:05.524Z,16.7
2017-10-05T00:44:18.912Z,16.67
2017-10-05T00:44:32.314Z,16.73
2017-10-05T00:44:45.704Z,16.73
2017-10-05T00:44:59.297Z,16.65
2017-10-05T00:45:12.172Z,16.59
2017-10-05T00:45:25.039Z,16.72
2017-10-05T00:45:37.935Z,16.63
2017-10-05T00:45:50.290Z,16.7
2017-10-05T00:46:03.717Z,16.77
2017-10-05T00:46:17.123Z,16.67
2017-10-05T00:46:29.964Z,16.65
2017-10-05T00:46:42.766Z,16.69
2017-10-05T00:46:56.143Z,16.65
2017-10-05T00:47:08.990Z,16.66
2017-10-05T00:47:22.395Z,16.69
2017-10-05T00:47:35.720Z,16.62
2017-10-05T00:47:48.626Z,16.67
2017-10-05T00:48:01.492Z,16.66
2017-10-05T00:48:14.866Z,16.69
2017-10-05T00:48:27.706Z,16.62
2017-10-05T00:48:41.092Z,16.66
2017-10-05T00:48:53.976Z,16.51
2017-10-05T00:49:06.790Z,16.52
2017-10-05T00:49:20.186Z,16.57
2017-10-05T00:49:33.590Z,16.52
2017-10-05T00:49:45.892Z,16.62
2017-10-05T00:49:59.392Z,16.59
2017-10-05T00:50:11.765Z,16.59
2017-10-05T00:50:25.148Z,16.63
2017-10-05T00:50:38.024Z,16.59
2017-10-05T00:50:51.444Z,16.65
2017-10-05T00:51:04.330Z,16.66
2017-10-05T00:51:17.730Z,16.54
2017-10-05T00:51:30.594Z,16.65
2017-10-05T00:51:43.389Z,16.58
2017-10-05T00:51:56.235Z,16.52
2017-10-05T00:52:08.610Z,16.66
2017-10-05T00:52:21.475Z,16.65
2017-10-05T00:52:34.890Z,16.66
2017-10-05T00:52:47.226Z,16.65
2017-10-05T00:53:00.604Z,16.62
2017-10-05T00:53:14.019Z,16.51
2017-10-05T00:53:27.414Z,16.62
2017-10-05T00:53:40.826Z,16.63
2017-10-05T00:53:53.178Z,16.55
2017-10-05T00:54:06.015Z,16.63
2017-10-05T00:54:19.456Z,16.54
2017-10-05T00:54:32.302Z,16.58
2017-10-05T00:54:45.147Z,16.62
2017-10-05T00:54:58.163Z,16.59
2017-10-05T00:55:10.954Z,16.58
2017-10-05T00:55:24.381Z,16.55
2017-10-05T00:55:37.797Z,16.62
2017-10-05T00:55:50.644Z,16.57
2017-10-05T00:56:03.673Z,16.55
2017-10-05T00:56:16.495Z,16.65
2017-10-05T00:56:29.347Z,16.59
2017-10-05T00:56:42.772Z,16.55
2017-10-05T00:56:56.119Z,16.58
2017-10-05T00:57:09.010Z,16.52
2017-10-05T00:57:23.355Z,16.52
2017-10-05T00:57:36.687Z,16.52
2017-10-05T00:57:49.780Z,16.57
2017-10-05T00:58:03.138Z,16.55
2017-10-05T00:58:15.931Z,16.63
2017-10-05T00:58:29.287Z,16.57
2017-10-05T00:58:42.693Z,16.55
2017-10-05T00:58:55.569Z,16.51
2017-10-05T00:59:07.855Z,16.57
2017-10-05T00:59:21.247Z,16.62
2017-10-05T00:59:33.535Z,16.58
2017-10-05T00:59:46.402Z,16.58
2017-10-05T00:59:58.654Z,16.58
2017-10-05T01:00:11.514Z,16.55
2017-10-05T01:00:24.912Z,16.58
2017-10-05T01:00:38.321Z,16.59
2017-10-05T01:00:51.679Z,16.54
2017-10-05T01:01:04.558Z,16.55
2017-10-05T01:01:17.957Z,16.58
2017-10-05T01:01:31.344Z,16.54
2017-10-05T01:01:44.231Z,16.55
2017-10-05T01:01:57.089Z,16.58
2017-10-05T01:02:10.473Z,16.55
2017-10-05T01:02:23.277Z,16.52
2017-10-05T01:02:36.630Z,16.57
2017-10-05T01:02:50.059Z,16.54
2017-10-05T01:03:03.458Z,16.55
2017-10-05T01:03:16.272Z,16.57
2017-10-05T01:03:29.164Z,16.55
2017-10-05T01:03:42.028Z,16.55
2017-10-05T01:03:54.803Z,16.59
2017-10-05T01:04:07.455Z,16.54
2017-10-05T01:04:21.190Z,16.57
2017-10-05T01:04:34.066Z,16.65
2017-10-05T01:04:48.228Z,16.58
2017-10-05T01:05:01.143Z,16.62
2017-10-05T01:05:14.273Z,16.55
2017-10-05T01:05:27.394Z,16.55
2017-10-05T01:05:39.964Z,16.62
2017-10-05T01:05:52.374Z,16.57
2017-10-05T01:06:05.754Z,16.58
2017-10-05T01:06:19.852Z,16.51
2017-10-05T01:06:33.226Z,16.63
2017-10-05T01:06:46.270Z,16.52
2017-10-05T01:07:00.351Z,16.57
2017-10-05T01:07:12.153Z,16.52
2017-10-05T01:07:25.078Z,16.58
2017-10-05T01:07:37.377Z,16.55
2017-10-05T01:07:50.273Z,16.55
2017-10-05T01:08:03.135Z,16.62
2017-10-05T01:08:15.480Z,16.44
2017-10-05T01:08:28.851Z,16.57
2017-10-05T01:08:41.800Z,16.57
2017-10-05T01:08:53.821Z,16.4
2017-10-05T01:09:06.998Z,16.48
2017-10-05T01:09:21.267Z,16.47
2017-10-05T01:09:33.606Z,16.4
2017-10-05T01:09:46.434Z,16.45
2017-10-05T01:09:59.302Z,16.47
2017-10-05T01:10:50.067Z,16.45
2017-10-05T01:11:02.430Z,16.51
2017-10-05T01:11:16.493Z,16.4
2017-10-05T01:11:30.158Z,16.51
2017-10-05T01:11:43.027Z,16.4
2017-10-05T01:11:55.895Z,16.45
2017-10-05T01:12:09.270Z,16.47
2017-10-05T01:12:22.073Z,16.55
2017-10-05T01:12:35.422Z,16.47
2017-10-05T01:12:48.283Z,16.47
2017-10-05T01:13:01.701Z,16.4
2017-10-05T01:13:15.177Z,16.47
2017-10-05T01:13:28.533Z,16.47
2017-10-05T01:13:40.318Z,16.39
2017-10-05T01:13:53.374Z,16.4
2017-10-05T01:14:06.255Z,16.4
2017-10-05T01:14:19.151Z,16.45
2017-10-05T01:14:32.061Z,16.4
2017-10-05T01:14:44.928Z,16.58
2017-10-05T01:14:57.859Z,16.52
2017-10-05T01:15:11.185Z,16.57
2017-10-05T01:15:24.601Z,16.47
2017-10-05T01:15:36.953Z,16.58
2017-10-05T01:15:49.823Z,16.45
2017-10-05T01:16:03.279Z,16.54
2017-10-05T01:16:16.153Z,16.59
2017-10-05T01:16:29.020Z,16.49
2017-10-05T01:16:41.862Z,16.57
2017-10-05T01:16:55.314Z,16.42
2017-10-05T01:17:08.642Z,16.42
2017-10-05T01:17:21.500Z,16.48
2017-10-05T01:17:34.898Z,16.4
2017-10-05T01:17:47.821Z,16.42
2017-10-05T01:18:00.136Z,16.48
2017-10-05T01:18:12.963Z,16.45
2017-10-05T01:18:25.307Z,16.39
2017-10-05T01:18:38.195Z,16.47
2017-10-05T01:18:51.065Z,16.42
2017-10-05T01:19:03.937Z,16.49
2017-10-05T01:19:16.309Z,16.49
2017-10-05T01:19:29.166Z,16.44
2017-10-05T01:19:42.590Z,16.39
2017-10-05T01:19:54.936Z,16.47
2017-10-05T01:20:07.923Z,16.48
2017-10-05T01:20:21.294Z,16.45
2017-10-05T01:20:34.740Z,16.47
2017-10-05T01:20:48.145Z,16.47
2017-10-05T01:21:01.539Z,16.44
2017-10-05T01:21:14.441Z,16.42
2017-10-05T01:21:27.830Z,16.45
2017-10-05T01:21:40.678Z,16.44
2017-10-05T01:21:53.022Z,16.44
2017-10-05T01:22:06.405Z,16.47
2017-10-05T01:22:19.820Z,16.47
2017-10-05T01:22:33.222Z,16.51
2017-10-05T01:22:46.178Z,16.42
2017-10-05T01:22:59.676Z,16.49
2017-10-05T01:23:13.042Z,16.49
2017-10-05T01:23:26.447Z,16.49
2017-10-05T01:23:39.325Z,16.4
2017-10-05T01:23:52.153Z,16.52
2017-10-05T01:24:06.042Z,16.47
2017-10-05T01:24:18.986Z,16.47
2017-10-05T01:24:32.430Z,16.48
2017-10-05T01:24:44.753Z,16.47
2017-10-05T01:24:57.790Z,16.48
2017-10-05T01:25:11.645Z,16.45
2017-10-05T01:25:25.087Z,16.47
2017-10-05T01:25:39.243Z,16.48
2017-10-05T01:25:52.669Z,16.45
2017-10-05T01:26:06.089Z,16.42
2017-10-05T01:26:18.903Z,16.49
2017-10-05T01:26:32.315Z,16.47
2017-10-05T01:26:45.215Z,16.49
2017-10-05T01:26:58.674Z,16.47
2017-10-05T01:27:12.111Z,16.45
2017-10-05T01:27:25.470Z,16.44
2017-10-05T01:27:38.444Z,16.44
2017-10-05T01:27:49.251Z,16.49
2017-10-05T01:28:03.205Z,16.4
2017-10-05T01:28:15.600Z,16.44
2017-10-05T01:28:29.211Z,16.42
2017-10-05T01:28:42.584Z,16.48
2017-10-05T01:28:55.427Z,16.47
2017-10-05T01:29:08.833Z,16.48
2017-10-05T01:29:22.346Z,16.45
2017-10-05T01:29:35.820Z,16.39
2017-10-05T01:29:48.212Z,16.42
2017-10-05T01:30:01.630Z,16.47
2017-10-05T01:30:15.512Z,16.4
2017-10-05T01:30:28.433Z,16.4
2017-10-05T01:30:41.858Z,16.4
2017-10-05T01:30:55.216Z,16.44
2017-10-05T01:31:08.619Z,16.44
2017-10-05T01:31:22.020Z,16.45
2017-10-05T01:31:35.415Z,16.39
2017-10-05T01:31:48.062Z,16.47
2017-10-05T01:32:01.509Z,16.4
2017-10-05T01:32:13.826Z,16.42
2017-10-05T01:32:27.213Z,16.39
2017-10-05T01:32:40.694Z,16.4
2017-10-05T01:32:53.057Z,16.44
2017-10-05T01:33:06.484Z,16.44
2017-10-05T01:33:19.892Z,16.47
2017-10-05T01:33:32.834Z,16.39
2017-10-05T01:33:45.716Z,16.4
2017-10-05T01:33:58.760Z,16.4
2017-10-05T01:34:11.619Z,16.36
2017-10-05T01:34:25.037Z,16.37
2017-10-05T01:34:38.156Z,16.32
2017-10-05T01:34:51.501Z,16.32
2017-10-05T01:35:05.211Z,16.22
2017-10-05T01:35:18.197Z,16.29
2017-10-05T01:35:31.699Z,16.18
2017-10-05T01:35:44.109Z,16.22
2017-10-05T01:35:57.590Z,16.21
2017-10-05T01:36:10.703Z,16.17
2017-10-05T01:36:23.789Z,16.17
2017-10-05T01:36:37.297Z,16.18
2017-10-05T01:36:52.370Z,16.13
2017-10-05T01:37:05.308Z,16.14
2017-10-05T01:37:18.161Z,16.07
2017-10-05T01:37:31.561Z,16.04
2017-10-05T01:37:45.005Z,15.99
2017-10-05T01:37:56.843Z,16.07
2017-10-05T01:38:10.480Z,15.89
2017-10-05T01:38:23.013Z,15.99
2017-10-05T01:38:36.464Z,15.96
2017-10-05T01:38:48.788Z,15.86
2017-10-05T01:39:00.975Z,15.91
2017-10-05T01:39:13.561Z,15.93
2017-10-05T01:39:27.586Z,15.95
2017-10-05T01:39:41.079Z,15.86
2017-10-05T01:39:54.398Z,15.86
2017-10-05T01:40:07.853Z,15.8
2017-10-05T01:40:21.324Z,15.75
2017-10-05T01:40:42.812Z,15.62
2017-10-05T01:40:55.671Z,15.73
2017-10-05T01:41:08.782Z,15.62
2017-10-05T01:41:23.025Z,15.7
2017-10-05T01:41:37.275Z,15.68
2017-10-05T01:41:50.660Z,15.75
2017-10-05T01:42:04.282Z,15.6
2017-10-05T01:42:18.954Z,15.56
2017-10-05T01:42:33.001Z,15.56
2017-10-05T01:42:46.090Z,15.62
2017-10-05T01:42:58.974Z,15.6
2017-10-05T01:43:12.644Z,15.6
2017-10-05T01:43:24.996Z,15.62
2017-10-05T01:43:40.391Z,15.6
2017-10-05T01:43:52.985Z,15.59
2017-10-05T01:44:07.273Z,15.6
2017-10-05T01:44:43.509Z,15.55
2017-10-05T01:44:55.895Z,15.41
2017-10-05T01:45:10.998Z,15.6
2017-10-05T01:45:23.793Z,15.45
2017-10-05T01:45:36.741Z,15.47
2017-10-05T01:45:49.079Z,15.47
2017-10-05T01:46:03.718Z,15.47
2017-10-05T01:46:16.085Z,15.44
2017-10-05T01:46:29.469Z,15.52
2017-10-05T01:46:44.093Z,15.44
2017-10-05T01:46:55.981Z,15.41
2017-10-05T01:47:10.945Z,15.44
2017-10-05T01:47:24.007Z,15.47
2017-10-05T01:47:36.855Z,15.47
2017-10-05T01:47:50.496Z,15.43
2017-10-05T01:48:34.476Z,15.44
2017-10-05T01:48:52.962Z,15.37
2017-10-05T01:49:06.351Z,15.45
2017-10-05T01:49:19.803Z,15.41
2017-10-05T01:49:34.900Z,15.44
2017-10-05T01:49:48.974Z,15.41
2017-10-05T01:50:02.380Z,15.33
2017-10-05T01:50:14.708Z,15.4
2017-10-05T01:50:28.800Z,15.3
2017-10-05T01:50:49.263Z,15.31
2017-10-05T01:51:10.072Z,15.37
2017-10-05T01:51:23.575Z,15.37
2017-10-05T01:51:37.008Z,15.38
2017-10-05T01:51:51.612Z,15.31
2017-10-05T01:52:04.484Z,15.3
2017-10-05T01:52:16.873Z,15.34
2017-10-05T01:52:30.306Z,15.34
2017-10-05T01:52:48.167Z,15.26
2017-10-05T01:53:00.988Z,15.27
2017-10-05T01:53:14.326Z,15.4
2017-10-05T01:53:27.194Z,15.37
2017-10-05T01:53:40.528Z,15.27
2017-10-05T01:53:52.877Z,15.25
2017-10-05T01:54:05.786Z,15.33
2017-10-05T01:54:19.218Z,15.37
2017-10-05T01:54:32.546Z,15.3
2017-10-05T01:54:45.957Z,15.34
2017-10-05T01:54:58.843Z,15.34
2017-10-05T01:55:11.686Z,15.37
2017-10-05T01:55:25.231Z,15.38
2017-10-05T01:55:38.109Z,15.33
2017-10-05T01:55:51.434Z,15.37
2017-10-05T01:56:04.826Z,15.38
2017-10-05T01:56:17.148Z,15.41
2017-10-05T01:56:28.964Z,15.33
2017-10-05T01:56:41.807Z,15.38
2017-10-05T01:56:55.210Z,15.26
2017-10-05T01:57:08.102Z,15.34
2017-10-05T01:57:21.042Z,15.27
2017-10-05T01:57:33.897Z,15.34
2017-10-05T01:57:46.735Z,15.33
2017-10-05T01:58:00.118Z,15.31
2017-10-05T01:58:13.521Z,15.27
2017-10-05T01:58:26.902Z,15.37
2017-10-05T01:58:40.363Z,15.38
2017-10-05T01:58:53.196Z,15.44
2017-10-05T01:59:06.032Z,15.45
2017-10-05T01:59:18.891Z,15.43
2017-10-05T01:59:32.277Z,15.44
2017-10-05T01:59:45.186Z,15.41
2017-10-05T01:59:58.084Z,15.38
2017-10-05T02:00:11.463Z,15.41
2017-10-05T02:00:24.642Z,15.4
2017-10-05T02:00:38.037Z,15.44
2017-10-05T02:00:50.917Z,15.49
2017-10-05T02:01:03.756Z,15.47
2017-10-05T02:01:16.635Z,15.56
2017-10-05T02:01:28.961Z,15.55
2017-10-05T02:01:42.365Z,15.58
2017-10-05T02:01:55.240Z,15.6
2017-10-05T02:02:08.069Z,15.58
2017-10-05T02:02:20.970Z,15.58
2017-10-05T02:02:33.806Z,15.65
2017-10-05T02:02:47.167Z,15.73
2017-10-05T02:03:00.020Z,15.73
2017-10-05T02:03:12.923Z,15.83
2017-10-05T02:03:25.823Z,15.73
2017-10-05T02:03:39.253Z,15.81
2017-10-05T02:03:52.138Z,15.77
2017-10-05T02:04:04.961Z,15.8
2017-10-05T02:04:18.341Z,15.81
2017-10-05T02:04:31.726Z,15.78
2017-10-05T02:04:44.584Z,15.84
2017-10-05T02:04:58.007Z,15.89
2017-10-05T02:05:11.388Z,15.81
2017-10-05T02:05:23.826Z,15.86
2017-10-05T02:05:37.239Z,15.93
2017-10-05T02:05:50.088Z,15.89
2017-10-05T02:06:02.985Z,15.84
2017-10-05T02:06:15.862Z,15.95
2017-10-05T02:06:29.232Z,15.92
2017-10-05T02:06:42.129Z,15.95
2017-10-05T02:06:55.040Z,15.95
2017-10-05T02:07:08.415Z,15.91
2017-10-05T02:07:21.816Z,15.99
2017-10-05T02:07:34.138Z,16
2017-10-05T02:07:47.488Z,16
2017-10-05T02:07:59.793Z,15.99
2017-10-05T02:08:11.620Z,15.98
2017-10-05T02:08:23.960Z,16.08
2017-10-05T02:08:37.339Z,16.06
2017-10-05T02:08:50.678Z,15.99
2017-10-05T02:09:03.536Z,16.02
2017-10-05T02:09:16.902Z,16.02
2017-10-05T02:09:29.205Z,16.06
2017-10-05T02:09:42.077Z,16.04
2017-10-05T02:09:53.900Z,16.07
2017-10-05T02:10:06.231Z,16.07
2017-10-05T02:10:19.607Z,16.13
2017-10-05T02:10:33.078Z,16.22
2017-10-05T02:10:45.445Z,16.13
2017-10-05T02:10:58.804Z,16.17
2017-10-05T02:11:11.658Z,16.17
2017-10-05T02:11:24.465Z,16.22
2017-10-05T02:11:37.327Z,16.17
2017-10-05T02:11:50.709Z,16.26
2017-10-05T02:12:04.122Z,16.26
2017-10-05T02:12:16.952Z,16.27
2017-10-05T02:12:29.813Z,16.27
2017-10-05T02:12:41.635Z,16.29
2017-10-05T02:12:55.045Z,16.33
2017-10-05T02:13:08.409Z,16.32
2017-10-05T02:13:21.305Z,16.3
2017-10-05T02:13:34.235Z,16.27
2017-10-05T02:13:47.679Z,16.36
2017-10-05T02:14:01.044Z,16.42
2017-10-05T02:14:14.484Z,16.33
2017-10-05T02:14:27.355Z,16.32
2017-10-05T02:14:40.708Z,16.42
2017-10-05T02:14:54.142Z,16.42
2017-10-05T02:15:07.530Z,16.49
2017-10-05T02:15:20.933Z,16.42
2017-10-05T02:15:35.794Z,16.44
2017-10-05T02:15:48.171Z,16.48
2017-10-05T02:16:01.046Z,16.51
2017-10-05T02:16:14.163Z,16.48
2017-10-05T02:16:27.098Z,16.42
2017-10-05T02:16:38.885Z,16.44
2017-10-05T02:16:51.213Z,16.45
2017-10-05T02:17:04.592Z,16.48
2017-10-05T02:17:17.971Z,16.47
2017-10-05T02:17:31.408Z,16.45
2017-10-05T02:17:44.214Z,16.47
2017-10-05T02:17:57.579Z,16.47
2017-10-05T02:18:10.980Z,16.44
2017-10-05T02:18:24.347Z,16.42
2017-10-05T02:18:37.720Z,16.45
2017-10-05T02:18:51.052Z,16.48
2017-10-05T02:19:04.423Z,16.55
2017-10-05T02:19:16.731Z,16.45
2017-10-05T02:19:30.070Z,16.4
2017-10-05T02:19:43.447Z,16.51
2017-10-05T02:19:56.821Z,16.4
2017-10-05T02:20:08.656Z,16.42
2017-10-05T02:20:22.009Z,16.51
2017-10-05T02:20:35.540Z,16.49
2017-10-05T02:20:47.357Z,16.45
2017-10-05T02:21:00.227Z,16.44
2017-10-05T02:21:13.002Z,16.51
2017-10-05T02:21:25.837Z,16.45
2017-10-05T02:21:39.217Z,16.48
2017-10-05T02:21:52.588Z,16.42
2017-10-05T02:22:05.959Z,16.42
2017-10-05T02:22:18.792Z,16.44
2017-10-05T02:22:31.623Z,16.44
2017-10-05T02:22:44.442Z,16.58
2017-10-05T02:22:57.283Z,16.42
2017-10-05T02:23:10.655Z,16.44
2017-10-05T02:23:24.043Z,16.42
2017-10-05T02:23:36.920Z,16.49
2017-10-05T02:23:49.829Z,16.47
2017-10-05T02:24:03.176Z,16.47
2017-10-05T02:24:16.543Z,16.47
2017-10-05T02:24:29.958Z,16.44
2017-10-05T02:24:42.844Z,16.44
2017-10-05T02:24:55.737Z,16.45
2017-10-05T02:25:09.115Z,16.44
2017-10-05T02:25:22.460Z,16.44
2017-10-05T02:25:36.039Z,16.44
2017-10-05T02:25:49.429Z,16.49
2017-10-05T02:26:02.301Z,16.49
2017-10-05T02:26:15.110Z,16.48
2017-10-05T02:26:28.491Z,16.51
2017-10-05T02:26:41.877Z,16.42
2017-10-05T02:26:54.755Z,16.4
2017-10-05T02:27:07.091Z,16.48
2017-10-05T02:27:19.925Z,16.51
2017-10-05T02:27:31.691Z,16.49
2017-10-05T02:27:45.078Z,16.45
2017-10-05T02:27:58.478Z,16.51
2017-10-05T02:28:11.347Z,16.44
2017-10-05T02:28:24.763Z,16.44
2017-10-05T02:28:37.671Z,16.48
2017-10-05T02:28:49.966Z,16.45
2017-10-05T02:29:03.348Z,16.59
2017-10-05T02:29:15.654Z,16.48
2017-10-05T02:29:28.989Z,16.45
2017-10-05T02:29:42.440Z,16.45
2017-10-05T02:29:55.326Z,16.48
2017-10-05T02:30:07.689Z,16.47
2017-10-05T02:30:20.536Z,16.48
2017-10-05T02:30:34.124Z,16.44
2017-10-05T02:30:46.962Z,16.42
2017-10-05T02:30:59.849Z,16.49
2017-10-05T02:31:12.690Z,16.52
2017-10-05T02:31:25.542Z,16.47
2017-10-05T02:31:38.911Z,16.39
2017-10-05T02:31:51.246Z,16.42
2017-10-05T02:32:04.118Z,16.34
2017-10-05T02:32:16.972Z,16.42
2017-10-05T02:32:30.359Z,16.32
2017-10-05T02:32:43.221Z,16.33
2017-10-05T02:32:56.622Z,16.3
2017-10-05T02:33:09.951Z,16.22
2017-10-05T02:33:23.320Z,16.3
2017-10-05T02:33:36.719Z,16.21
2017-10-05T02:33:49.036Z,16.29
2017-10-05T02:34:01.902Z,16.27
2017-10-05T02:34:15.286Z,16.25
2017-10-05T02:34:28.130Z,16.17
2017-10-05T02:34:41.582Z,16.16
2017-10-05T02:34:54.961Z,16.17
2017-10-05T02:35:08.344Z,16.16
2017-10-05T02:35:21.755Z,16.13
2017-10-05T02:35:35.316Z,16.1
2017-10-05T02:35:48.695Z,16.11
2017-10-05T02:36:02.078Z,16.07
2017-10-05T02:36:15.013Z,16.07
2017-10-05T02:36:28.393Z,16.04
2017-10-05T02:36:41.753Z,16.07
2017-10-05T02:36:54.570Z,16.04
2017-10-05T02:37:07.923Z,16.04
2017-10-05T02:37:21.340Z,16.02
2017-10-05T02:37:34.692Z,15.96
2017-10-05T02:37:47.537Z,15.88
2017-10-05T02:38:00.954Z,15.96
2017-10-05T02:38:14.380Z,15.91
2017-10-05T02:38:27.714Z,15.84
2017-10-05T02:38:40.545Z,15.91
2017-10-05T02:38:52.863Z,15.88
2017-10-05T02:39:04.696Z,15.92
2017-10-05T02:39:18.134Z,15.78
2017-10-05T02:39:31.506Z,15.86
2017-10-05T02:39:44.362Z,15.81
2017-10-05T02:39:56.145Z,15.81
2017-10-05T02:40:09.559Z,15.77
2017-10-05T02:40:22.389Z,15.75
2017-10-05T02:40:35.909Z,15.75
2017-10-05T02:40:49.317Z,15.7
2017-10-05T02:41:02.135Z,15.68
2017-10-05T02:41:15.551Z,15.74
2017-10-05T02:41:28.435Z,15.73
2017-10-05T02:41:41.800Z,15.67
2017-10-05T02:41:54.614Z,15.67
2017-10-05T02:42:07.998Z,15.58
2017-10-05T02:42:19.879Z,15.6
2017-10-05T02:42:32.781Z,15.59
2017-10-05T02:42:46.141Z,15.53
2017-10-05T02:42:59.569Z,15.56
2017-10-05T02:43:12.472Z,15.45
2017-10-05T02:43:25.343Z,15.51
2017-10-05T02:43:38.758Z,15.41
2017-10-05T02:43:51.630Z,15.44
2017-10-05T02:44:04.985Z,15.35
2017-10-05T02:44:18.394Z,15.34
2017-10-05T02:44:31.830Z,15.34
2017-10-05T02:44:45.177Z,15.3
2017-10-05T02:44:58.572Z,15.27
2017-10-05T02:45:11.434Z,15.27
2017-10-05T02:45:24.867Z,15.27
2017-10-05T02:45:38.519Z,15.26
2017-10-05T02:45:51.342Z,15.3
2017-10-05T02:46:04.704Z,15.23
2017-10-05T02:46:17.014Z,15.22
2017-10-05T02:46:30.397Z,15.16
2017-10-05T02:46:43.224Z,15.16
2017-10-05T02:46:56.271Z,15.16
2017-10-05T02:47:09.682Z,15.27
2017-10-05T02:47:22.539Z,15.3
2017-10-05T02:47:35.892Z,15.15
2017-10-05T02:47:49.253Z,15.23
2017-10-05T02:48:02.632Z,15.26
2017-10-05T02:48:15.996Z,15.22
2017-10-05T02:48:29.348Z,15.27
2017-10-05T02:48:41.152Z,15.37
2017-10-05T02:48:54.525Z,15.27
2017-10-05T02:49:07.376Z,15.31
2017-10-05T02:49:20.740Z,15.33
2017-10-05T02:49:33.070Z,15.33
2017-10-05T02:49:45.908Z,15.33
2017-10-05T02:49:59.369Z,15.38
2017-10-05T02:50:11.761Z,15.37
2017-10-05T02:50:24.046Z,15.41
2017-10-05T02:50:37.451Z,15.38
2017-10-05T02:50:51.229Z,15.51
2017-10-05T02:51:04.592Z,15.49
2017-10-05T02:51:17.413Z,15.45
2017-10-05T02:51:30.249Z,15.49
2017-10-05T02:51:43.111Z,15.47
2017-10-05T02:51:55.431Z,15.53
2017-10-05T02:52:07.782Z,15.52
2017-10-05T02:52:21.209Z,15.53
2017-10-05T02:52:33.528Z,15.56
2017-10-05T02:52:46.887Z,15.55
2017-10-05T02:53:00.276Z,15.58
2017-10-05T02:53:13.663Z,15.62
2017-10-05T02:53:26.984Z,15.63
2017-10-05T02:53:39.833Z,15.59
2017-10-05T02:53:53.201Z,15.63
2017-10-05T02:54:05.468Z,15.59
2017-10-05T02:54:18.323Z,15.56
2017-10-05T02:54:31.764Z,15.58
2017-10-05T02:54:44.605Z,15.68
2017-10-05T02:54:57.994Z,15.62
2017-10-05T02:55:11.418Z,15.71
2017-10-05T02:55:23.770Z,15.71
2017-10-05T02:55:36.644Z,15.67
2017-10-05T02:55:50.218Z,15.68
2017-10-05T02:56:02.517Z,15.63
2017-10-05T02:56:14.873Z,15.74
2017-10-05T02:56:27.796Z,15.71
2017-10-05T02:56:40.657Z,15.74
2017-10-05T02:56:53.483Z,15.71
2017-10-05T02:57:05.832Z,15.71
2017-10-05T02:57:18.673Z,15.68
2017-10-05T02:57:30.972Z,15.71
2017-10-05T02:57:43.299Z,15.65
2017-10-05T02:57:56.736Z,15.65
2017-10-05T02:58:10.128Z,15.73
2017-10-05T02:58:23.538Z,15.7
2017-10-05T02:58:36.370Z,15.74
2017-10-05T02:58:49.238Z,15.73
2017-10-05T02:59:01.579Z,15.73
2017-10-05T02:59:15.019Z,15.68
2017-10-05T02:59:28.422Z,15.65
2017-10-05T02:59:41.283Z,15.67